This is the latest recevied weather packets stored in our database for station/object OE-11349. If no packets are shown the sender has not sent any weather packets the latest 10 day(s).
| Time | Temp. | Humidity | Pressure | Rain* | Wind** | Luminosity | Snow |
|---|---|---|---|---|---|---|---|
| 1787994309 | 13.33° C | 63% | 854 hPa | - | - | 365 W/m² | - |
| 1787993709 | 13.33° C | 61% | 853.9 hPa | - | - | 392 W/m² | - |
| 1787992881 | 13.33° C | 65% | 853.9 hPa | - | - | 372 W/m² | - |
| 1787992508 | 12.78° C | 64% | 853.9 hPa | - | - | 379 W/m² | - |
| 1787991908 | 12.78° C | 62% | 854 hPa | - | - | 468 W/m² | - |
| 1787991082 | 11.67° C | 69% | 854 hPa | - | - | 234 W/m² | - |
| 1787990708 | 11.11° C | 76% | 854 hPa | - | - | 151 W/m² | - |
| 1787990109 | 11.11° C | 82% | 854 hPa | - | - | 145 W/m² | - |
| 1787989281 | 10.56° C | 84% | 853.9 hPa | - | - | 138 W/m² | - |
| 1787988909 | 11.11° C | 82% | 853.8 hPa | - | - | 151 W/m² | - |
| 1787988308 | 11.11° C | 78% | 853.8 hPa | - | - | 138 W/m² | - |
| 1787987482 | 10.56° C | 82% | 853.6 hPa | - | - | 165 W/m² | - |
| 1787987109 | 10.56° C | 82% | 853.6 hPa | - | - | 124 W/m² | - |
| 1787986509 | 10.56° C | 79% | 853.6 hPa | - | - | 131 W/m² | - |
| 1787985682 | 10° C | 85% | 853.5 hPa | - | - | 179 W/m² | - |
| 1787985308 | 10° C | 83% | 853.6 hPa | - | - | 124 W/m² | - |
| 1787984709 | 9.44° C | 81% | 853.8 hPa | - | - | 83 W/m² | - |
| 1787983882 | 8.89° C | 87% | 853.8 hPa | - | - | 55 W/m² | - |
| 1787982909 | 8.89° C | 88% | 853.7 hPa | - | - | 28 W/m² | - |
| 1787982081 | 8.89° C | 84% | 853.5 hPa | - | - | 14 W/m² | - |
| 1787981709 | 9.44° C | 81% | 853.7 hPa | - | - | 14 W/m² | - |
| 1787981108 | 9.44° C | 78% | 853.6 hPa | - | - | 7 W/m² | - |
| 1787980281 | 9.44° C | 79% | 853.4 hPa | - | - | 14 W/m² | - |
| 1787979908 | 9.44° C | 76% | 853.4 hPa | - | - | 14 W/m² | - |
| 1787979309 | 9.44° C | 78% | 853.4 hPa | - | - | 7 W/m² | - |
* Rain since midnight (hover to see other rain measurements)
** Current wind speed in m/s (hover to see current wind gust speed)